Time;durP1;ratioP1;P1;durP2;ratioP2;P2;SDS_P1;SDS_P2;PMS_P1;PMS_P2;Temp;Humidity;BMP_temperature;BMP_pressure;BME280_temperature;BME280_humidity;BME280_pressure;Samples;Min_cycle;Max_cycle;Signal;HPM_P1;HPM_P2
2022/07/15 00:00:46;;;;;;;5.77;2.40;;;;;;;;;;5075087;28;20445;-73
2022/07/15 00:03:15;;;;;;;6.00;2.17;;;;;;;;;;5073260;28;20437;-73
2022/07/15 00:05:45;;;;;;;2.93;1.97;;;;;;;;;;5052260;28;20951;-73
2022/07/15 00:08:12;;;;;;;3.73;2.33;;;;;;;;;;5059464;28;20482;-73
2022/07/15 00:10:39;;;;;;;2.90;2.10;;;;;;;;;;5052129;28;20433;-73
2022/07/15 00:13:06;;;;;;;2.93;2.13;;;;;;;;;;5051997;28;20972;-73
2022/07/15 00:15:34;;;;;;;3.33;2.50;;;;;;;;;;5052964;28;20461;-73
2022/07/15 00:18:03;;;;;;;4.00;2.47;;;;;;;;;;5052994;28;20540;-73
2022/07/15 00:20:33;;;;;;;2.50;2.07;;;;;;;;;;5062416;28;20449;-73
2022/07/15 00:23:01;;;;;;;3.53;2.30;;;;;;;;;;5074772;28;20440;-73
2022/07/15 00:25:28;;;;;;;3.67;2.37;;;;;;;;;;5073074;28;20513;-73
2022/07/15 00:27:56;;;;;;;4.13;2.33;;;;;;;;;;5062723;28;20476;-73
2022/07/15 00:30:23;;;;;;;4.10;2.40;;;;;;;;;;5060610;28;20516;-73
2022/07/15 00:32:51;;;;;;;7.40;2.80;;;;;;;;;;5051568;28;20491;-73
2022/07/15 00:35:18;;;;;;;4.37;2.27;;;;;;;;;;5051359;28;20481;-73
2022/07/15 00:37:47;;;;;;;3.83;2.30;;;;;;;;;;5052535;28;20445;-73
2022/07/15 00:40:14;;;;;;;3.10;1.83;;;;;;;;;;5052695;28;20440;-73
2022/07/15 00:42:44;;;;;;;5.47;2.27;;;;;;;;;;5060984;28;20451;-73
2022/07/15 00:45:12;;;;;;;3.37;2.10;;;;;;;;;;5074206;28;20807;-73
2022/07/15 00:47:39;;;;;;;5.20;2.20;;;;;;;;;;5073078;28;20480;-73
2022/07/15 00:50:07;;;;;;;11.13;2.63;;;;;;;;;;5060881;28;20429;-73
2022/07/15 00:52:36;;;;;;;2.80;2.03;;;;;;;;;;5062726;28;20440;-73
2022/07/15 00:55:06;;;;;;;3.40;2.20;;;;;;;;;;5071170;28;20887;-73
2022/07/15 00:57:35;;;;;;;3.77;2.00;;;;;;;;;;5070913;28;20502;-73
2022/07/15 01:00:03;;;;;;;6.17;2.77;;;;;;;;;;5071916;28;20462;-73
2022/07/15 01:02:31;;;;;;;2.50;2.00;;;;;;;;;;5072333;28;20778;-73
2022/07/15 01:05:00;;;;;;;3.27;2.43;;;;;;;;;;5072251;28;20484;-73
2022/07/15 01:07:27;;;;;;;3.40;2.00;;;;;;;;;;5073981;28;20984;-73
2022/07/15 01:09:54;;;;;;;6.60;2.30;;;;;;;;;;5071967;28;20468;-73
2022/07/15 01:12:22;;;;;;;4.97;2.70;;;;;;;;;;5061947;28;20429;-73
2022/07/15 01:14:50;;;;;;;5.10;2.80;;;;;;;;;;5061817;28;20428;-73
2022/07/15 01:17:17;;;;;;;3.03;2.30;;;;;;;;;;5070858;28;20945;-73
2022/07/15 01:19:44;;;;;;;5.33;2.57;;;;;;;;;;5070768;28;20885;-73
2022/07/15 01:22:13;;;;;;;8.50;2.77;;;;;;;;;;5071810;28;20642;-73
2022/07/15 01:24:40;;;;;;;3.20;2.30;;;;;;;;;;5071985;28;20444;-73
2022/07/15 01:27:08;;;;;;;6.90;2.53;;;;;;;;;;5071817;28;20511;-73
2022/07/15 01:29:35;;;;;;;5.33;2.73;;;;;;;;;;5073951;28;20433;-73
2022/07/15 01:32:02;;;;;;;5.60;2.53;;;;;;;;;;5071842;28;20436;-73
2022/07/15 01:34:29;;;;;;;7.43;3.00;;;;;;;;;;5060075;28;20436;-73
2022/07/15 01:36:56;;;;;;;6.00;2.30;;;;;;;;;;5061793;28;20452;-73
2022/07/15 01:39:25;;;;;;;4.63;2.50;;;;;;;;;;5070590;28;20939;-73
2022/07/15 01:41:52;;;;;;;4.60;2.73;;;;;;;;;;5070334;28;20456;-73
2022/07/15 01:44:19;;;;;;;9.77;3.00;;;;;;;;;;5071770;28;20536;-73
2022/07/15 01:46:47;;;;;;;3.27;2.50;;;;;;;;;;5071830;28;20456;-74
2022/07/15 01:51:55;;;;;;;3.53;2.37;;;;;;;;;;5071945;28;20976;-73
2022/07/15 01:54:23;;;;;;;8.30;2.63;;;;;;;;;;5071103;28;20866;-73
2022/07/15 01:56:52;;;;;;;4.80;2.40;;;;;;;;;;5059826;28;20423;-73
2022/07/15 01:59:22;;;;;;;3.37;2.70;;;;;;;;;;5061003;28;20446;-73
2022/07/15 02:01:49;;;;;;;6.43;2.50;;;;;;;;;;5070751;28;20436;-73
2022/07/15 02:04:17;;;;;;;4.90;3.27;;;;;;;;;;5068969;28;20440;-73
2022/07/15 02:06:44;;;;;;;6.27;2.63;;;;;;;;;;5070976;28;20499;-73
2022/07/15 02:09:11;;;;;;;6.57;2.20;;;;;;;;;;5070370;28;20490;-73
2022/07/15 02:11:38;;;;;;;6.00;2.57;;;;;;;;;;5071810;28;20444;-73
2022/07/15 02:14:07;;;;;;;4.13;2.50;;;;;;;;;;5073178;28;20410;-73
2022/07/15 02:16:36;;;;;;;5.23;2.60;;;;;;;;;;5070725;28;20452;-73
2022/07/15 02:19:03;;;;;;;7.00;2.50;;;;;;;;;;5060873;28;20440;-73
2022/07/15 02:21:30;;;;;;;5.40;2.70;;;;;;;;;;5060988;28;20930;-73
2022/07/15 02:23:58;;;;;;;5.53;2.60;;;;;;;;;;5070404;28;20954;-73
2022/07/15 02:26:25;;;;;;;7.67;2.33;;;;;;;;;;5070060;28;20489;-73
2022/07/15 02:28:53;;;;;;;5.50;2.30;;;;;;;;;;5070994;28;20510;-73
2022/07/15 02:31:21;;;;;;;8.90;3.00;;;;;;;;;;5069982;28;20849;-73
2022/07/15 02:33:49;;;;;;;9.30;3.20;;;;;;;;;;5071247;28;20488;-73
2022/07/15 02:36:16;;;;;;;3.30;2.30;;;;;;;;;;5072656;28;20472;-73
2022/07/15 02:38:43;;;;;;;3.67;2.50;;;;;;;;;;5070444;28;20921;-73
2022/07/15 02:41:12;;;;;;;4.67;2.73;;;;;;;;;;5061000;28;20436;-73
2022/07/15 02:43:41;;;;;;;3.10;2.20;;;;;;;;;;5055564;28;20441;-73
2022/07/15 02:46:09;;;;;;;6.77;2.50;;;;;;;;;;5049975;28;20427;-72
2022/07/15 02:48:37;;;;;;;4.47;2.20;;;;;;;;;;5049878;28;20489;-73
2022/07/15 02:51:05;;;;;;;3.93;2.73;;;;;;;;;;5051030;28;20438;-73
2022/07/15 02:53:32;;;;;;;4.70;2.40;;;;;;;;;;5050956;28;20441;-73
2022/07/15 02:56:00;;;;;;;3.47;2.67;;;;;;;;;;5060782;28;20470;-73
2022/07/15 02:58:27;;;;;;;5.90;2.47;;;;;;;;;;5071527;28;20447;-73
2022/07/15 03:00:54;;;;;;;3.70;2.20;;;;;;;;;;5070493;28;20801;-73
2022/07/15 03:03:22;;;;;;;9.47;3.07;;;;;;;;;;5061851;28;20426;-73
2022/07/15 03:05:50;;;;;;;7.10;2.37;;;;;;;;;;5065287;28;20448;-73
2022/07/15 03:08:17;;;;;;;4.60;2.37;;;;;;;;;;5073807;28;20500;-73
2022/07/15 03:10:45;;;;;;;7.63;2.63;;;;;;;;;;5073239;28;20539;-73
2022/07/15 03:13:12;;;;;;;2.90;2.50;;;;;;;;;;5074213;28;20442;-73
2022/07/15 03:15:39;;;;;;;4.83;2.70;;;;;;;;;;5074019;28;20542;-73
2022/07/15 03:18:07;;;;;;;3.60;2.53;;;;;;;;;;5074535;28;20488;-73
2022/07/15 03:20:34;;;;;;;5.27;2.50;;;;;;;;;;5076032;28;20482;-73
2022/07/15 03:23:02;;;;;;;5.27;2.57;;;;;;;;;;5073815;28;20447;-73
2022/07/15 03:25:30;;;;;;;7.60;2.97;;;;;;;;;;5062111;28;20449;-73
2022/07/15 03:27:57;;;;;;;3.93;2.57;;;;;;;;;;5065238;28;20491;-73
2022/07/15 03:30:24;;;;;;;6.33;2.43;;;;;;;;;;5073165;28;20826;-73
2022/07/15 03:32:51;;;;;;;6.10;2.83;;;;;;;;;;5072898;28;20478;-74
2022/07/15 03:35:19;;;;;;;7.40;3.00;;;;;;;;;;5073566;28;20450;-73
2022/07/15 03:37:46;;;;;;;5.00;2.93;;;;;;;;;;5074126;28;20436;-73
2022/07/15 03:40:15;;;;;;;5.83;2.60;;;;;;;;;;5073948;28;20456;-74
2022/07/15 03:42:42;;;;;;;3.97;2.93;;;;;;;;;;5075732;28;20536;-74
2022/07/15 03:45:09;;;;;;;5.93;3.40;;;;;;;;;;5074192;28;20456;-73
2022/07/15 03:47:38;;;;;;;5.00;2.60;;;;;;;;;;5061255;28;20430;-73
2022/07/15 03:50:06;;;;;;;4.37;2.53;;;;;;;;;;5060412;28;20430;-73
2022/07/15 03:52:33;;;;;;;3.97;2.67;;;;;;;;;;5052479;28;20808;-73
2022/07/15 03:55:00;;;;;;;5.90;3.03;;;;;;;;;;5052179;28;20822;-73
2022/07/15 03:57:28;;;;;;;3.77;2.93;;;;;;;;;;5053513;28;20453;-73
2022/07/15 03:59:56;;;;;;;4.90;3.13;;;;;;;;;;5053586;28;20444;-73
2022/07/15 04:02:23;;;;;;;8.10;3.37;;;;;;;;;;5061898;28;20466;-74
2022/07/15 04:04:50;;;;;;;9.20;4.37;;;;;;;;;;5075182;28;20444;-73
2022/07/15 04:07:17;;;;;;;4.57;2.90;;;;;;;;;;5074320;28;20445;-73
2022/07/15 04:09:44;;;;;;;6.47;2.70;;;;;;;;;;5061463;28;20484;-73
2022/07/15 04:12:12;;;;;;;7.80;2.97;;;;;;;;;;5062966;28;20945;-73
2022/07/15 04:14:40;;;;;;;5.20;3.20;;;;;;;;;;5071696;28;20949;-73
2022/07/15 04:17:08;;;;;;;4.43;2.77;;;;;;;;;;5072035;28;20440;-74
2022/07/15 04:19:35;;;;;;;6.17;3.73;;;;;;;;;;5073337;28;20941;-73
2022/07/15 04:22:03;;;;;;;9.43;4.00;;;;;;;;;;5072912;28;21000;-73
2022/07/15 04:24:30;;;;;;;5.40;3.30;;;;;;;;;;5073177;28;20434;-73
2022/07/15 04:26:57;;;;;;;10.03;3.07;;;;;;;;;;5074758;28;20479;-73
2022/07/15 04:29:24;;;;;;;6.50;3.20;;;;;;;;;;5074220;28;20486;-73
2022/07/15 04:31:53;;;;;;;12.50;3.73;;;;;;;;;;5061168;28;20429;-73
2022/07/15 04:34:20;;;;;;;6.80;3.40;;;;;;;;;;5063219;28;20425;-73
2022/07/15 04:36:47;;;;;;;3.17;2.47;;;;;;;;;;5051267;28;20466;-73
2022/07/15 04:39:14;;;;;;;3.83;2.57;;;;;;;;;;5051650;28;20486;-73
2022/07/15 04:41:41;;;;;;;6.80;3.50;;;;;;;;;;5052397;28;20408;-73
2022/07/15 04:44:09;;;;;;;5.10;2.73;;;;;;;;;;5052564;28;20933;-73
2022/07/15 04:46:36;;;;;;;6.37;3.57;;;;;;;;;;5058815;28;20453;-73
2022/07/15 04:51:45;;;;;;;9.07;3.40;;;;;;;;;;5072874;28;20407;-73
2022/07/15 04:54:13;;;;;;;9.37;3.20;;;;;;;;;;5059976;28;20764;-73
2022/07/15 04:56:40;;;;;;;8.57;3.53;;;;;;;;;;5062604;28;20836;-73
2022/07/15 04:59:07;;;;;;;10.43;3.40;;;;;;;;;;5051345;28;20417;-73
2022/07/15 05:01:34;;;;;;;5.40;3.03;;;;;;;;;;5050824;28;20424;-73
2022/07/15 05:04:01;;;;;;;8.23;3.40;;;;;;;;;;5052098;28;20422;-74
2022/07/15 05:06:30;;;;;;;6.70;3.60;;;;;;;;;;5052200;28;20460;-74
2022/07/15 05:08:57;;;;;;;7.10;3.17;;;;;;;;;;5059340;28;20459;-74
2022/07/15 05:11:24;;;;;;;5.50;3.10;;;;;;;;;;5073850;28;20464;-74
2022/07/15 05:13:53;;;;;;;8.10;4.20;;;;;;;;;;5073944;28;20494;-74
2022/07/15 05:16:20;;;;;;;7.53;3.43;;;;;;;;;;5059054;28;20488;-74
2022/07/15 05:18:48;;;;;;;6.50;3.60;;;;;;;;;;5062232;28;20431;-74
2022/07/15 05:21:16;;;;;;;6.80;3.60;;;;;;;;;;5070902;28;20548;-74
2022/07/15 05:23:44;;;;;;;4.40;2.90;;;;;;;;;;5070759;28;20442;-74
2022/07/15 05:26:12;;;;;;;7.37;3.03;;;;;;;;;;5070857;28;20472;-74
2022/07/15 05:28:40;;;;;;;4.07;2.40;;;;;;;;;;5071735;28;20471;-74
2022/07/15 05:31:08;;;;;;;5.13;2.87;;;;;;;;;;5071780;28;20552;-73
2022/07/15 05:33:35;;;;;;;6.43;3.13;;;;;;;;;;5073824;28;20753;-74
2022/07/15 05:36:02;;;;;;;6.30;3.00;;;;;;;;;;5073275;28;20459;-76
2022/07/15 05:38:29;;;;;;;4.60;2.57;;;;;;;;;;5061179;28;20437;-76
2022/07/15 05:40:58;;;;;;;4.53;3.33;;;;;;;;;;5061806;28;20432;-75
2022/07/15 05:43:25;;;;;;;7.83;4.00;;;;;;;;;;5069854;28;20432;-75
2022/07/15 05:45:52;;;;;;;4.10;3.13;;;;;;;;;;5070526;28;20469;-74
2022/07/15 05:48:19;;;;;;;3.27;2.80;;;;;;;;;;5071093;28;20520;-73
2022/07/15 05:50:47;;;;;;;3.30;2.80;;;;;;;;;;5071728;28;20447;-73
2022/07/15 05:53:14;;;;;;;5.63;3.10;;;;;;;;;;5071149;28;20509;-74
2022/07/15 05:55:41;;;;;;;6.00;3.37;;;;;;;;;;5073347;28;20950;-74
2022/07/15 05:58:10;;;;;;;5.73;2.77;;;;;;;;;;5073420;28;20424;-74
2022/07/15 06:00:38;;;;;;;6.63;3.90;;;;;;;;;;5061923;28;20429;-75
2022/07/15 06:03:05;;;;;;;7.30;4.03;;;;;;;;;;5059757;28;20411;-74
2022/07/15 06:05:33;;;;;;;7.07;2.90;;;;;;;;;;5050088;28;20455;-75
2022/07/15 06:08:00;;;;;;;3.60;2.67;;;;;;;;;;5050288;28;20441;-75
2022/07/15 06:10:27;;;;;;;6.80;3.30;;;;;;;;;;5050782;28;20495;-76
2022/07/15 06:12:55;;;;;;;4.93;3.17;;;;;;;;;;5051564;28;20806;-76
2022/07/15 06:15:23;;;;;;;6.60;3.13;;;;;;;;;;5052389;28;20552;-76
2022/07/15 06:17:51;;;;;;;4.83;3.07;;;;;;;;;;5062827;28;20468;-76
2022/07/15 06:20:18;;;;;;;6.60;3.23;;;;;;;;;;5062803;28;20441;-76
2022/07/15 06:22:46;;;;;;;10.77;3.20;;;;;;;;;;5067796;28;20528;-77
2022/07/15 06:25:13;;;;;;;7.50;3.40;;;;;;;;;;5068081;28;20480;-76
2022/07/15 06:27:41;;;;;;;5.97;3.90;;;;;;;;;;5069911;28;20440;-74
2022/07/15 06:30:09;;;;;;;8.47;3.37;;;;;;;;;;5070947;28;20825;-74
2022/07/15 06:32:37;;;;;;;4.80;3.43;;;;;;;;;;5070037;28;20446;-74
2022/07/15 06:35:05;;;;;;;4.27;2.93;;;;;;;;;;5056156;28;20460;-74
2022/07/15 06:37:32;;;;;;;5.07;3.07;;;;;;;;;;5062772;28;20918;-74
2022/07/15 06:40:00;;;;;;;6.83;3.50;;;;;;;;;;5069415;28;20969;-74
2022/07/15 06:42:27;;;;;;;9.70;3.70;;;;;;;;;;5074493;28;20949;-74
2022/07/15 06:44:54;;;;;;;6.00;2.90;;;;;;;;;;5072488;28;20440;-74
2022/07/15 06:47:21;;;;;;;5.10;2.70;;;;;;;;;;5074758;28;20440;-74
2022/07/15 06:49:50;;;;;;;6.03;3.60;;;;;;;;;;5074606;28;20480;-73
2022/07/15 06:52:18;;;;;;;6.20;2.90;;;;;;;;;;5075531;28;20452;-74
2022/07/15 06:54:45;;;;;;;7.23;3.47;;;;;;;;;;5076504;28;20440;-74
2022/07/15 06:57:16;;;;;;;11.37;3.73;;;;;;;;;;5072344;28;20866;-74
2022/07/15 06:59:43;;;;;;;8.80;3.10;;;;;;;;;;5065074;28;20439;-74
2022/07/15 07:02:10;;;;;;;6.33;3.87;;;;;;;;;;5067624;28;20432;-73
2022/07/15 07:04:38;;;;;;;9.13;3.17;;;;;;;;;;5073875;28;20472;-73
2022/07/15 07:07:07;;;;;;;5.27;3.30;;;;;;;;;;5073498;28;20790;-75
2022/07/15 07:09:34;;;;;;;5.27;3.60;;;;;;;;;;5074159;28;20483;-74
2022/07/15 07:12:01;;;;;;;4.40;2.80;;;;;;;;;;5074612;28;20440;-76
2022/07/15 07:14:28;;;;;;;7.20;3.27;;;;;;;;;;5075036;28;20944;-74
2022/07/15 07:16:56;;;;;;;5.60;3.70;;;;;;;;;;5076047;28;20464;-75
2022/07/15 07:19:23;;;;;;;4.37;2.97;;;;;;;;;;5072559;28;20433;-77
2022/07/15 07:21:50;;;;;;;5.73;3.60;;;;;;;;;;5064623;28;20785;-78
2022/07/15 07:24:19;;;;;;;6.43;3.77;;;;;;;;;;5060463;28;20446;-78
2022/07/15 07:26:46;;;;;;;8.13;3.00;;;;;;;;;;5053537;28;20470;-78
2022/07/15 07:29:16;;;;;;;4.27;2.87;;;;;;;;;;5052936;28;20982;-78
2022/07/15 07:31:46;;;;;;;6.10;2.90;;;;;;;;;;5053461;28;20448;-78
2022/07/15 07:34:14;;;;;;;6.03;3.20;;;;;;;;;;5054330;28;20499;-79
2022/07/15 07:36:41;;;;;;;4.33;2.77;;;;;;;;;;5065764;28;20545;-75
2022/07/15 07:39:08;;;;;;;4.80;2.67;;;;;;;;;;5076057;28;20456;-75
2022/07/15 07:41:37;;;;;;;6.00;2.80;;;;;;;;;;5075983;28;20901;-76
2022/07/15 07:44:05;;;;;;;3.93;2.50;;;;;;;;;;5062048;28;20435;-75
2022/07/15 07:46:32;;;;;;;5.23;3.20;;;;;;;;;;5062816;28;21151;-77
2022/07/15 07:49:00;;;;;;;5.63;3.23;;;;;;;;;;5071922;28;20440;-77
2022/07/15 07:51:27;;;;;;;3.80;2.80;;;;;;;;;;5072523;28;20442;-76
2022/07/15 07:53:55;;;;;;;3.00;2.63;;;;;;;;;;5073451;28;20801;-77
2022/07/15 07:56:22;;;;;;;5.00;2.53;;;;;;;;;;5073536;28;20866;-77
2022/07/15 07:58:51;;;;;;;5.97;3.37;;;;;;;;;;5073250;28;20440;-76
2022/07/15 08:01:19;;;;;;;6.43;3.17;;;;;;;;;;5074367;28;20812;-76
2022/07/15 08:03:46;;;;;;;5.30;3.07;;;;;;;;;;5071979;28;20439;-76
2022/07/15 08:06:16;;;;;;;3.03;2.60;;;;;;;;;;5062865;28;20440;-76
2022/07/15 08:08:44;;;;;;;6.33;2.70;;;;;;;;;;5057935;28;20476;-77
2022/07/15 08:11:12;;;;;;;4.77;2.40;;;;;;;;;;5052724;28;20480;-77
2022/07/15 08:13:39;;;;;;;5.87;2.60;;;;;;;;;;5052264;28;20452;-76
2022/07/15 08:16:08;;;;;;;4.50;2.43;;;;;;;;;;5051877;28;20552;-76
2022/07/15 08:18:35;;;;;;;3.47;2.10;;;;;;;;;;5053336;28;20433;-76
2022/07/15 08:21:03;;;;;;;2.97;1.60;;;;;;;;;;5064642;28;20812;-76
2022/07/15 08:23:32;;;;;;;4.37;2.10;;;;;;;;;;5074700;28;20515;-77
2022/07/15 08:26:00;;;;;;;3.53;1.60;;;;;;;;;;5070939;28;20535;-77
2022/07/15 08:28:27;;;;;;;1.53;1.40;;;;;;;;;;5062583;28;20434;-76
2022/07/15 08:30:54;;;;;;;3.70;1.53;;;;;;;;;;5064179;28;20480;-77
2022/07/15 08:33:23;;;;;;;3.87;1.50;;;;;;;;;;5072425;28;20436;-76
2022/07/15 08:35:50;;;;;;;3.40;1.30;;;;;;;;;;5071468;28;20460;-76
2022/07/15 08:38:17;;;;;;;5.10;1.70;;;;;;;;;;5072230;28;20545;-76
2022/07/15 08:40:45;;;;;;;2.70;1.50;;;;;;;;;;5072978;28;20437;-76
2022/07/15 08:43:12;;;;;;;3.43;1.37;;;;;;;;;;5073038;28;20449;-77
2022/07/15 08:45:42;;;;;;;1.40;1.10;;;;;;;;;;5074301;28;20550;-76
2022/07/15 08:48:09;;;;;;;4.50;1.37;;;;;;;;;;5069776;28;20521;-76
2022/07/15 08:50:38;;;;;;;2.43;1.33;;;;;;;;;;5061749;28;20477;-77
2022/07/15 08:53:06;;;;;;;2.50;1.60;;;;;;;;;;5058860;28;20455;-77
2022/07/15 08:55:33;;;;;;;3.30;1.60;;;;;;;;;;5050843;28;20479;-76
2022/07/15 08:58:00;;;;;;;2.70;1.70;;;;;;;;;;5051284;28;20539;-77
2022/07/15 09:00:29;;;;;;;4.90;1.70;;;;;;;;;;5051238;28;20445;-77
2022/07/15 09:02:57;;;;;;;4.37;2.00;;;;;;;;;;5052239;28;20445;-77
2022/07/15 09:05:26;;;;;;;3.70;1.80;;;;;;;;;;5063450;28;20567;-77
2022/07/15 09:07:57;;;;;;;2.10;1.40;;;;;;;;;;5074250;28;20436;-77
2022/07/15 09:10:26;;;;;;;4.53;1.77;;;;;;;;;;5070544;28;20506;-77
2022/07/15 09:12:54;;;;;;;4.70;1.90;;;;;;;;;;5060373;28;20425;-76
2022/07/15 09:15:36;;;;;;;3.87;2.00;;;;;;;;;;5063042;28;20463;-76
2022/07/15 09:18:06;;;;;;;2.63;1.50;;;;;;;;;;5070343;28;20454;-77
2022/07/15 09:20:33;;;;;;;6.63;2.10;;;;;;;;;;5069750;28;20464;-76
2022/07/15 09:23:02;;;;;;;4.10;1.50;;;;;;;;;;5070419;28;20471;-76
2022/07/15 09:25:30;;;;;;;3.33;1.70;;;;;;;;;;5071793;28;21060;-75
2022/07/15 09:28:00;;;;;;;3.23;1.80;;;;;;;;;;5072427;28;20622;-76
2022/07/15 09:38:40;;;;;;;4.87;2.03;;;;;;;;;;5053324;28;20421;-77
2022/07/15 09:41:07;;;;;;;4.83;2.30;;;;;;;;;;5050182;28;20495;-77
2022/07/15 09:43:43;;;;;;;4.10;1.80;;;;;;;;;;5050721;28;20457;-74
2022/07/15 09:46:11;;;;;;;5.00;2.20;;;;;;;;;;5051638;28;21030;-79
2022/07/15 09:48:41;;;;;;;4.77;2.90;;;;;;;;;;5051303;28;20447;-76
2022/07/15 09:51:09;;;;;;;7.80;2.90;;;;;;;;;;5073124;28;20977;-77
2022/07/15 09:53:37;;;;;;;3.13;2.13;;;;;;;;;;5073657;28;20432;-74
2022/07/15 09:56:05;;;;;;;6.43;2.23;;;;;;;;;;5062652;28;20457;-77
2022/07/15 09:58:33;;;;;;;4.53;2.10;;;;;;;;;;5059637;28;20436;-75
2022/07/15 10:01:00;;;;;;;3.20;2.10;;;;;;;;;;5067822;28;20437;-80
2022/07/15 10:03:27;;;;;;;4.87;2.00;;;;;;;;;;5070836;28;20539;-81
2022/07/15 10:05:55;;;;;;;4.90;2.10;;;;;;;;;;5070465;28;21045;-78
2022/07/15 10:08:23;;;;;;;3.30;1.90;;;;;;;;;;5070461;28;20436;-81
2022/07/15 10:10:51;;;;;;;3.10;1.90;;;;;;;;;;5071242;28;20490;-79
2022/07/15 10:13:26;;;;;;;6.13;1.60;;;;;;;;;;5075596;28;20446;-77
2022/07/15 10:15:58;;;;;;;11.17;2.50;;;;;;;;;;5077337;28;20455;-78
2022/07/15 10:18:34;;;;;;;6.17;2.03;;;;;;;;;;5067031;28;20479;-78
2022/07/15 10:21:04;;;;;;;3.83;2.30;;;;;;;;;;5064282;28;20439;-79
2022/07/15 10:23:40;;;;;;;3.63;1.70;;;;;;;;;;5071171;28;20479;-76
2022/07/15 10:26:20;;;;;;;3.47;1.83;;;;;;;;;;5073942;28;20456;-78
2022/07/15 10:28:51;;;;;;;3.80;2.00;;;;;;;;;;5071510;28;20757;-76
2022/07/15 10:31:20;;;;;;;2.63;2.20;;;;;;;;;;5071471;28;20491;-78
2022/07/15 10:34:02;;;;;;;4.67;2.60;;;;;;;;;;5069647;28;20460;-79
2022/07/15 10:36:39;;;;;;;2.60;2.40;;;;;;;;;;5060717;28;20463;-78
2022/07/15 10:39:08;;;;;;;4.57;2.40;;;;;;;;;;5059450;28;20443;-74
2022/07/15 10:41:52;;;;;;;4.53;2.33;;;;;;;;;;5069885;28;20448;-74
2022/07/15 10:44:19;;;;;;;6.23;2.10;;;;;;;;;;5070311;28;20452;-76
2022/07/15 10:46:47;;;;;;;2.60;2.13;;;;;;;;;;5070887;28;20539;-78
2022/07/15 10:49:29;;;;;;;8.40;2.50;;;;;;;;;;5070178;28;20435;-78
2022/07/15 10:51:57;;;;;;;2.70;2.00;;;;;;;;;;5069590;28;20494;-76
2022/07/15 10:54:38;;;;;;;5.00;2.60;;;;;;;;;;5072821;28;20941;-76
2022/07/15 10:57:07;;;;;;;3.53;2.30;;;;;;;;;;5071513;28;20444;-81
2022/07/15 10:59:37;;;;;;;5.50;2.50;;;;;;;;;;5059458;28;20890;-76
2022/07/15 11:02:13;;;;;;;6.97;2.40;;;;;;;;;;5059176;28;20444;-80
2022/07/15 11:04:41;;;;;;;2.30;1.60;;;;;;;;;;5069759;28;20573;-78
2022/07/15 11:07:23;;;;;;;6.10;1.70;;;;;;;;;;5070044;28;20440;-76
2022/07/15 11:09:51;;;;;;;3.53;1.80;;;;;;;;;;5070272;28;20543;-75
2022/07/15 11:12:21;;;;;;;8.07;1.77;;;;;;;;;;5070937;28;20475;-76
2022/07/15 11:14:50;;;;;;;2.93;2.03;;;;;;;;;;5069959;28;20531;-76
2022/07/15 11:17:19;;;;;;;4.43;1.83;;;;;;;;;;5071980;28;20448;-76
2022/07/15 11:19:48;;;;;;;4.73;2.10;;;;;;;;;;5072236;28;20440;-75
2022/07/15 11:22:17;;;;;;;1.70;1.40;;;;;;;;;;5061152;28;21108;-75
2022/07/15 11:24:44;;;;;;;6.00;1.63;;;;;;;;;;5060450;28;20510;-79
2022/07/15 11:27:12;;;;;;;3.43;1.57;;;;;;;;;;5053241;28;20796;-77
2022/07/15 11:29:49;;;;;;;3.73;1.63;;;;;;;;;;5053348;28;20799;-78
2022/07/15 11:32:16;;;;;;;7.93;1.90;;;;;;;;;;5057311;28;20480;-76
2022/07/15 11:34:44;;;;;;;4.80;1.63;;;;;;;;;;5054722;28;20443;-79
2022/07/15 11:37:12;;;;;;;3.03;1.30;;;;;;;;;;5061372;28;20448;-77
2022/07/15 11:39:39;;;;;;;3.90;1.40;;;;;;;;;;5078226;28;20444;-83
2022/07/15 11:44:50;;;;;;;4.30;2.07;;;;;;;;;;5064650;28;20459;-79
2022/07/15 11:47:18;;;;;;;3.40;1.60;;;;;;;;;;5062736;28;22006;-78
2022/07/15 11:49:45;;;;;;;2.23;1.40;;;;;;;;;;5071166;28;20483;-75
2022/07/15 11:52:14;;;;;;;2.13;1.30;;;;;;;;;;5072257;28;20480;-77
2022/07/15 11:54:43;;;;;;;2.07;1.20;;;;;;;;;;5073174;28;20933;-79
2022/07/15 11:57:13;;;;;;;3.50;1.93;;;;;;;;;;5073928;28;20451;-76
2022/07/15 11:59:40;;;;;;;3.13;1.70;;;;;;;;;;5072987;28;20425;-78
2022/07/15 12:02:10;;;;;;;2.40;1.47;;;;;;;;;;5075272;28;20444;-77
2022/07/15 12:04:38;;;;;;;3.33;1.60;;;;;;;;;;5075206;28;20480;-76
2022/07/15 12:07:05;;;;;;;4.47;1.40;;;;;;;;;;5066400;28;20437;-75
2022/07/15 12:09:40;;;;;;;2.60;1.17;;;;;;;;;;5060739;28;20529;-75
2022/07/15 12:12:07;;;;;;;2.13;1.33;;;;;;;;;;5069787;28;20661;-74
2022/07/15 12:14:34;;;;;;;2.33;1.80;;;;;;;;;;5072556;28;20450;-76
2022/07/15 12:17:02;;;;;;;3.17;1.50;;;;;;;;;;5071209;28;20437;-78
2022/07/15 12:19:32;;;;;;;3.07;1.30;;;;;;;;;;5073424;28;21016;-75
2022/07/15 12:22:00;;;;;;;3.30;1.50;;;;;;;;;;5072895;28;20871;-75
2022/07/15 12:24:28;;;;;;;2.67;1.60;;;;;;;;;;5074192;28;20531;-79
2022/07/15 12:26:59;;;;;;;2.30;1.10;;;;;;;;;;5074661;28;20991;-77
2022/07/15 12:29:28;;;;;;;3.70;1.43;;;;;;;;;;5064907;28;20494;-76
2022/07/15 12:31:56;;;;;;;3.67;1.53;;;;;;;;;;5060671;28;20484;-76
2022/07/15 12:34:44;;;;;;;4.90;1.30;;;;;;;;;;5067307;28;20527;-77
2022/07/15 12:37:12;;;;;;;2.40;1.27;;;;;;;;;;5070639;28;20440;-79
2022/07/15 12:39:55;;;;;;;2.70;1.10;;;;;;;;;;5072359;28;20436;-77
2022/07/15 12:42:22;;;;;;;3.93;1.50;;;;;;;;;;5071628;28;20634;-75
2022/07/15 12:45:04;;;;;;;2.90;1.40;;;;;;;;;;5070908;28;20456;-74
2022/07/15 12:47:31;;;;;;;5.40;1.67;;;;;;;;;;5073291;28;20440;-77
2022/07/15 12:50:00;;;;;;;3.93;1.60;;;;;;;;;;5074388;28;20535;-76
2022/07/15 12:52:33;;;;;;;2.30;1.33;;;;;;;;;;5063862;28;20484;-80
2022/07/15 12:55:01;;;;;;;4.70;1.57;;;;;;;;;;5062478;28;20958;-79
2022/07/15 12:57:31;;;;;;;3.23;1.37;;;;;;;;;;5070398;28;20459;-74
2022/07/15 12:59:59;;;;;;;2.50;1.60;;;;;;;;;;5071292;28;20524;-77
2022/07/15 13:02:27;;;;;;;1.80;1.20;;;;;;;;;;5071918;28;20440;-77
2022/07/15 13:04:54;;;;;;;3.60;1.90;;;;;;;;;;5071250;28;20964;-75
2022/07/15 13:07:21;;;;;;;1.57;1.30;;;;;;;;;;5071766;28;20440;-75
2022/07/15 13:09:50;;;;;;;3.50;1.47;;;;;;;;;;5074027;28;20443;-74
2022/07/15 13:12:18;;;;;;;3.30;1.67;;;;;;;;;;5073902;28;20583;-76
2022/07/15 13:14:45;;;;;;;4.83;1.40;;;;;;;;;;5065102;28;20952;-75
2022/07/15 13:17:12;;;;;;;4.17;1.37;;;;;;;;;;5060607;28;20436;-74
2022/07/15 13:19:39;;;;;;;2.67;1.50;;;;;;;;;;5067400;28;20527;-75
2022/07/15 13:22:07;;;;;;;1.90;1.40;;;;;;;;;;5071780;28;20454;-74
2022/07/15 13:24:34;;;;;;;2.20;1.30;;;;;;;;;;5071021;28;20432;-74
2022/07/15 13:27:02;;;;;;;5.20;1.60;;;;;;;;;;5071973;28;20440;-74
2022/07/15 13:29:30;;;;;;;2.53;1.30;;;;;;;;;;5071794;28;20925;-73
2022/07/15 13:31:57;;;;;;;2.50;1.57;;;;;;;;;;5072649;28;20989;-73
2022/07/15 13:34:24;;;;;;;3.23;1.40;;;;;;;;;;5073731;28;20436;-73
2022/07/15 13:36:52;;;;;;;2.80;1.50;;;;;;;;;;5066625;28;20459;-75
2022/07/15 13:39:19;;;;;;;3.00;1.37;;;;;;;;;;5060369;28;20426;-73
2022/07/15 13:41:46;;;;;;;3.13;1.67;;;;;;;;;;5065788;28;20498;-75
2022/07/15 13:44:15;;;;;;;3.10;1.40;;;;;;;;;;5071531;28;20436;-75
2022/07/15 13:46:42;;;;;;;2.80;1.50;;;;;;;;;;5068867;28;20659;-74
2022/07/15 13:49:09;;;;;;;4.70;1.60;;;;;;;;;;5071448;28;20436;-78
2022/07/15 13:51:40;;;;;;;2.40;1.60;;;;;;;;;;5071829;28;21020;-77
2022/07/15 13:54:08;;;;;;;4.70;1.50;;;;;;;;;;5072513;28;20440;-76
2022/07/15 13:56:35;;;;;;;2.30;1.37;;;;;;;;;;5072160;28;20460;-76
2022/07/15 13:59:03;;;;;;;2.30;1.27;;;;;;;;;;5068781;28;20452;-79
2022/07/15 14:01:32;;;;;;;3.13;1.20;;;;;;;;;;5061234;28;20444;-77
2022/07/15 14:04:00;;;;;;;4.90;1.40;;;;;;;;;;5062592;28;20439;-76
2022/07/15 14:06:27;;;;;;;7.13;1.47;;;;;;;;;;5071067;28;20463;-78
2022/07/15 14:08:54;;;;;;;5.77;2.67;;;;;;;;;;5070509;28;20443;-79
2022/07/15 14:11:21;;;;;;;2.20;1.30;;;;;;;;;;5071100;28;20515;-77
2022/07/15 14:13:49;;;;;;;2.80;1.30;;;;;;;;;;5071527;28;20433;-76
2022/07/15 14:16:16;;;;;;;2.50;1.30;;;;;;;;;;5071897;28;20478;-77
2022/07/15 14:18:45;;;;;;;2.70;1.30;;;;;;;;;;5073475;28;21005;-78
2022/07/15 14:21:13;;;;;;;3.00;1.67;;;;;;;;;;5070588;28;20440;-79
2022/07/15 14:23:40;;;;;;;2.03;1.30;;;;;;;;;;5060443;28;20433;-78
2022/07/15 14:26:07;;;;;;;2.33;1.70;;;;;;;;;;5061927;28;20456;-75
2022/07/15 14:28:35;;;;;;;2.67;1.57;;;;;;;;;;5070366;28;20448;-78
2022/07/15 14:31:02;;;;;;;5.00;1.50;;;;;;;;;;5070055;28;20443;-75
2022/07/15 14:33:29;;;;;;;7.30;1.83;;;;;;;;;;5071046;28;20523;-77
2022/07/15 14:35:58;;;;;;;2.73;1.30;;;;;;;;;;5071018;28;20828;-76
2022/07/15 14:38:25;;;;;;;2.23;1.10;;;;;;;;;;5071305;28;20444;-73
2022/07/15 14:40:52;;;;;;;2.00;1.27;;;;;;;;;;5071808;28;20447;-78
2022/07/15 14:43:19;;;;;;;3.30;1.53;;;;;;;;;;5071919;28;20829;-75
2022/07/15 14:45:47;;;;;;;2.63;1.60;;;;;;;;;;5059925;28;20452;-76
2022/07/15 14:48:14;;;;;;;1.93;1.43;;;;;;;;;;5062416;28;20437;-75
2022/07/15 14:50:41;;;;;;;3.87;1.50;;;;;;;;;;5070127;28;20444;-76
2022/07/15 14:53:10;;;;;;;2.60;1.60;;;;;;;;;;5069755;28;20484;-76
2022/07/15 14:55:37;;;;;;;2.20;1.50;;;;;;;;;;5070506;28;20467;-75
2022/07/15 14:58:04;;;;;;;2.37;1.87;;;;;;;;;;5072090;28;20444;-75
2022/07/15 15:00:32;;;;;;;4.13;1.60;;;;;;;;;;5074406;28;20547;-80
2022/07/15 15:02:59;;;;;;;1.80;1.20;;;;;;;;;;5075352;28;20482;-79
2022/07/15 15:05:26;;;;;;;3.27;1.67;;;;;;;;;;5076790;28;20829;-75